Terminal Aerodrome Forecast
Issued by NWS

Home | Current Version | Previous Version | Text Only | Print | Product List | Glossary On
Versions: 1 2 3 4 5 6 7 8
000
FTUS44 KJAN 281100
TAFGTR
TAF
KGTR 281140Z 2812/2912 36007KT 5SM -RA BR BKN004 OVC008
     FM281800 36006KT 5SM RA BR OVC008
     FM290400 01005KT P6SM -RA BKN008 OVC020=

USA.gov is the U.S. government's official web portal to all federal, state and local government web resources and services.